Espace membre
Imprimable
Challenges > Delhalle - Bousval, 05/03/2017, BEL - Le Cross de Bousval
Liste des rapports > Delhalle - 15km - Classement
Recherche: Page: [1]
64 Entrées
 
Les réclamations ne sont plus acceptées, les résultats sont considérés comme définitifs.
RangNrNomAgeIOCLigueEquipeRéelTempsTkmMoy.ScrPtsLocalité
1.345MATHY DOMINIQUE60BELHUYHUY ATHLETIC1:01:041:01:044:05 14.7440894HUY (GIVES)
2.576RIVEZ PIERRE60BELACTE1:02:381:02:394:11 14.3750863SARS LA BUISSIERE
3.690LUPCIN PATRICK60BELRCNAMUR1:06:231:06:244:26 13.5692781PERWEZ
4.92HENRY ROBERT60BELACD1:06:381:06:384:27 13.5197774FLORENVILLE
5.714MAILIER CHRISTIAN61BELCRACESM1:08:261:08:274:34 13.15114738ROUX
6.976MARCHAL ANDRE61BELHF1:08:481:08:514:36 13.07124727VERVIERS
7.1238CASTIAUX JOSE64BELVALLÉE DU HAIN1:09:401:09:414:39 12.92136707
8.22DE MASI GIANNI64ITAFLEU1:11:551:11:584:48 12.51168656WANFERCEE BAULET
9.3726DE BACKER ERWIN60BEL1:12:151:12:244:50 12.43173649ANTWERPEN
10.146VAN NEVEL FRANS63BELBEHO1:12:121:12:384:51 12.39175648BRUGGE
11.809ROUSSELLE JOËL65BELBOUFFIOLS1:12:371:12:414:51 12.38178641FALISOLLE
12.1248FRESCA LUIGI64ITAUAC1:13:511:14:004:56 12.16193615
13.246VANTSIOTIS ANASTHASE64FRA1:14:241:14:294:58 12.09199604BARR
14.930WALLEE ALAIN61BELTENDONS LA HULPE1:14:291:14:434:59 12.05203601LA HULPE
15.3655BILON EUSEBE64FRAESM1:15:171:15:305:02 11.92213584MARCHIENNE AU PONT
16.194AUBERT SERGE62BELCHUDONDORGANES1:16:161:16:195:06 11.79225564GERPINNES
17.517KOLP CHRISTIAN63BELET ENGHIEN1:16:181:16:225:06 11.79227563HORRUES
18.743RATINCKX MICHEL60BELRIWAHERMATHENAE1:17:001:17:105:09 11.66242544BIERGES
19.465BOSKIN JEAN-CLAUDE62BELLES IDYLLES1:17:331:17:395:11 11.59246535STAVELOT
20.426QUINET BERNARD65BELFLEU1:17:421:17:545:12 11.55250531GILLY
21.296DESSEILLE ERNEST63BELRCNAMUR1:17:511:18:165:14 11.50254527WEPION
22.3727VERBEEK JEAN-LUC63BEL1:18:121:18:295:14 11.47262517BOUSVAL BELGIQUE
23.197ZYLBERBERG LUC65BELJOGGANS-GANT1:18:351:18:395:15 11.44263512BRUXELLES
24.534DUPONT ROGER60BELJOY. GUIBOLLES1:18:301:19:005:16 11.39270509BEAUSAINT
25.45PLOYAERT ERIC62BEL1:19:141:19:305:18 11.32272498LOBBES
26.822LECERF JEAN LUC61BELJOGGANS1:20:131:20:345:23 11.17281480UCCLE
27.3723VERTONGEN MARC63BELKURISTO1:20:461:21:125:25 11.08296465KRAAINEM
28.810BAUTHIER CHRISTIAN63BELLA FORESTIERE1:21:111:21:375:27 11.03297459GHLIN
29.993LELOUP STEPHAN63BEL1:21:341:21:435:27 11.01301452ROSIÈRES
30.849ABRAHAM LUC60BELUSBWUSBW1:21:401:21:485:28 11.00306448WATERLOO
31.1462DE PIERPONT RENAUD61BEL1:22:191:22:555:32 10.85319432
32.346LELOUP YVES63BELFLEU1:23:201:23:365:35 10.77322419ST-AMAND
33.755VAN HEULENBERGHE FRANK61BEL1:23:461:24:065:37 10.70324412GENT
34.3692MYANT MARTIN67GBRRCB1:24:011:24:195:38 10.68327407BRUXELLES
35.3653CARPANTIER JEAN-JACQUES62BELSWIFT1:24:061:24:235:38 10.67330405RIXENSART
36.40COMANDINI LUCIANO61BELUACRRTC1:24:571:25:295:42 10.53352381MONTIGNIE SUR SAMBRE
37.411LUYPAERT ARMAND67BELGRIM1:25:561:26:105:45 10.44354369MEISE
38.57ZEGERS ROLLAND61BELGRIM1:26:501:27:055:49 10.34369350EVERE
39.3696ROSE FRANKIE63BEL1:26:461:27:085:49 10.33370350SART DAMES AVELINES
40.792BONTE PHILIPPE60BELJOGGANS1:28:021:28:195:54 10.19388324BRUXELLES
41.510GEORGE JEAN POL66BEL1:28:261:28:425:55 10.15394316BEAUVECHAIN
42.85FIORITO ANTONIO61ITAJACO1:28:321:28:585:56 10.12397313VIRELLES
43.700FIVET ALAIN64BEL1:29:131:29:355:59 10.05403302WÉPION
44.1019SLUSE ALAIN61BELWRC LIERNEUX1:29:511:30:256:02 9.95409292VIELSALM
45.1500MASSART VICTOR64BELLES BOU1:30:271:30:446:03 9.92412283COUILLET
46.3658CHAPUIS MICHEL68FRA1:30:391:30:456:03 9.92413280LA HULPE
47.3724DE LEENER JEAN-MARIE63BELCABWNAC1:30:331:31:016:05 9.89415281LOT
48.3637BOUDART JEAN PAUL65BELKURISTO1:31:081:31:306:06 9.84424269BRUXELLES
49.692ROBERT MICHEL67BELBOUFFIOLS1:31:091:31:326:07 9.83425268GERPINNES
50.361VAN LAETHEM ELOI65BELFLEU1:32:181:32:336:11 9.73427254CHATELINEAU
51.59LIEGEOIS J.LOUIS65BEL1:33:171:33:436:15 9.60436238HEVERLEE
52.267MALCOURANT CLAUDE62BELLES MOTIVES DE METTET1:33:321:33:456:15 9.60438235SAINT-MARTIN
53.251GODEFRIDI THIERRY66BELMARATHONIEN1:33:131:33:496:16 9.59441236RIXENSART
54.3616TABUREAU MARC60BELJCPMF GENAPPE1:36:151:36:356:27 9.32457195VIEUX GENAPPE
55.1414DUPUIS BENOIT65BELJAMES1:36:151:36:466:28 9.30458195
56.64DEWIGNE BERNARD60BEL1:36:271:36:496:28 9.30459192OTTIGNIES
57.105ARNOULD EDOUARD63BELENJAMBEE1:38:271:38:516:36 9.11468167WOLUWE ST LAMBERT
58.385BLOMMAERT EDWARD64BELAVN1:38:291:38:566:36 9.10469166TURNHOUT
59.3657ROSENBAUM IVAN66BELRCBRCB1:38:341:38:566:36 9.10470164UCCLE
60.869GENOT YVES61BELENJAMBEE1:42:461:43:126:53 8.72498107KRAAINEM
61.201DOCHAIN MARC63BEL1:47:591:48:367:15 8.2951648BRUXELLES
62.3690FERNANDEZ GARCIA JOSE69ESPBTC1:48:571:49:217:18 8.2352037ANDERLECHT
63.448ROMAIN BERNARD60BEL1:54:351:55:077:41 7.825303CHASTRE
64.33GEORGES FRANCOIS61BEL2:37:292:37:2910:30 5.725351IXELLES
DNF: abandon; DSQ: disqualifié; Vitesse en km/h
Page: [1]